createdAt,value
2018-05-10T00:00:13.039Z,12.4
2018-05-10T00:01:03.402Z,12.4
2018-05-10T00:01:53.459Z,12.4
2018-05-10T00:02:43.521Z,12.3
2018-05-10T00:03:33.571Z,12.3
2018-05-10T00:04:23.727Z,12.3
2018-05-10T00:05:13.706Z,12.3
2018-05-10T00:06:03.483Z,12.4
2018-05-10T00:06:53.848Z,12.3
2018-05-10T00:07:43.633Z,12.3
2018-05-10T00:08:33.961Z,12.3
2018-05-10T00:10:14.192Z,12.3
2018-05-10T00:11:04.153Z,12.3
2018-05-10T00:11:54.224Z,12.3
2018-05-10T00:12:43.993Z,12.3
2018-05-10T00:13:34.067Z,12.3
2018-05-10T00:14:24.400Z,12.3
2018-05-10T00:15:14.469Z,12.3
2018-05-10T00:16:04.544Z,12.3
2018-05-10T00:16:54.597Z,12.3
2018-05-10T00:17:44.668Z,12.3
2018-05-10T00:18:34.726Z,12.3
2018-05-10T00:19:24.793Z,12.3
2018-05-10T00:20:14.871Z,12.3
2018-05-10T00:21:04.931Z,12.3
2018-05-10T00:21:54.995Z,12.3
2018-05-10T00:22:45.044Z,12.3
2018-05-10T00:23:35.111Z,12.3
2018-05-10T00:24:25.429Z,12.3
2018-05-10T00:25:15.236Z,12.3
2018-05-10T00:26:05.313Z,12.3
2018-05-10T00:26:55.368Z,12.3
2018-05-10T00:27:45.426Z,12.3
2018-05-10T00:28:35.495Z,12.2
2018-05-10T00:29:25.284Z,12.3
2018-05-10T00:30:15.336Z,12.2
2018-05-10T00:31:05.617Z,12.2
2018-05-10T00:31:55.756Z,12.2
2018-05-10T00:32:45.810Z,12.2
2018-05-10T00:33:35.585Z,12.2
2018-05-10T00:34:25.935Z,12.2
2018-05-10T00:35:16.012Z,12.1
2018-05-10T00:36:06.078Z,12.2
2018-05-10T00:36:55.858Z,12.1
2018-05-10T00:37:46.185Z,12.1
2018-05-10T00:38:35.995Z,12.1
2018-05-10T00:39:26.361Z,12.1
2018-05-10T00:40:16.406Z,12.1
2018-05-10T00:41:06.463Z,12.1
2018-05-10T00:41:56.528Z,12.1
2018-05-10T00:43:50.219Z,12.1
2018-05-10T00:44:00.641Z,12.1
2018-05-10T00:44:51.207Z,12.1
2018-05-10T00:45:41.040Z,12.1
2018-05-10T00:46:31.121Z,12.1
2018-05-10T00:47:20.888Z,12.1
2018-05-10T00:48:11.234Z,12.1
2018-05-10T00:49:01.303Z,12
2018-05-10T00:49:51.083Z,12
2018-05-10T00:50:41.436Z,12
2018-05-10T00:51:31.491Z,12
2018-05-10T00:52:21.546Z,12
2018-05-10T00:53:11.840Z,11.9
2018-05-10T00:54:01.410Z,11.9
2018-05-10T00:54:51.470Z,11.9
2018-05-10T00:55:41.810Z,11.9
2018-05-10T00:56:31.887Z,11.9
2018-05-10T00:57:21.664Z,11.9
2018-05-10T00:58:11.741Z,11.9
2018-05-10T00:59:02.056Z,11.9
2018-05-10T00:59:52.142Z,11.9
2018-05-10T01:00:41.907Z,11.9
2018-05-10T01:01:32.516Z,11.9
2018-05-10T01:02:22.032Z,11.9
2018-05-10T01:03:11.819Z,11.8
2018-05-10T01:04:02.471Z,11.8
2018-05-10T01:04:52.542Z,11.8
2018-05-10T01:05:42.297Z,11.8
2018-05-10T01:06:32.364Z,11.8
2018-05-10T01:07:22.427Z,11.8
2018-05-10T01:08:12.793Z,11.8
2018-05-10T01:09:02.840Z,11.8
2018-05-10T01:09:52.901Z,11.8
2018-05-10T01:10:42.682Z,11.8
2018-05-10T01:11:32.744Z,11.8
2018-05-10T01:12:22.811Z,11.7
2018-05-10T01:13:12.752Z,11.7
2018-05-10T01:14:02.934Z,11.7
2018-05-10T01:14:53.085Z,11.7
2018-05-10T01:15:42.859Z,11.6
2018-05-10T01:16:33.421Z,11.7
2018-05-10T01:17:23.191Z,11.6
2018-05-10T01:18:13.261Z,11.6
2018-05-10T01:19:03.308Z,11.6
2018-05-10T01:19:53.471Z,11.6
2018-05-10T01:20:43.432Z,11.6
2018-05-10T01:21:33.507Z,11.6
2018-05-10T01:22:23.566Z,11.6
2018-05-10T01:23:13.641Z,11.6
2018-05-10T01:24:03.965Z,11.6
2018-05-10T01:24:54.037Z,11.6
2018-05-10T01:25:44.113Z,11.5
2018-05-10T01:26:34.197Z,11.5
2018-05-10T01:27:24.233Z,11.5
2018-05-10T01:28:14.011Z,11.5
2018-05-10T01:29:04.363Z,11.5
2018-05-10T01:29:54.134Z,11.4
2018-05-10T01:30:44.513Z,11.5
2018-05-10T01:31:34.537Z,11.4
2018-05-10T01:32:24.641Z,11.4
2018-05-10T20:10:28.727Z,14.4
2018-05-10T20:11:19.074Z,14.4
2018-05-10T20:12:09.137Z,14.4
2018-05-10T20:12:59.186Z,14.4
2018-05-10T20:13:49.482Z,14.4
2018-05-10T20:14:39.320Z,14.4
2018-05-10T20:15:29.384Z,14.4
2018-05-10T20:16:19.435Z,14.4
2018-05-10T20:17:09.514Z,14.4
2018-05-10T20:17:59.584Z,14.3
2018-05-10T20:18:49.353Z,14.3
2018-05-10T20:19:39.692Z,14.3
2018-05-10T20:20:29.191Z,14.3
2018-05-10T20:21:19.830Z,14.3
2018-05-10T20:22:09.878Z,14.3
2018-05-10T20:22:59.681Z,14.3
2018-05-10T20:23:50.004Z,14.3
2018-05-10T20:24:39.787Z,14.2
2018-05-10T20:25:29.863Z,14.3
2018-05-10T20:26:19.918Z,14.2
2018-05-10T20:27:10.078Z,14.2
2018-05-10T20:28:00.153Z,14.2
2018-05-10T20:28:50.111Z,14.1
2018-05-10T20:29:39.888Z,14.1
2018-05-10T20:30:30.246Z,14.1
2018-05-10T20:31:20.301Z,14.1
2018-05-10T20:32:10.433Z,14.1
2018-05-10T20:33:00.710Z,14.1
2018-05-10T20:33:50.493Z,14.1
2018-05-10T20:34:40.649Z,14.1
2018-05-10T20:35:30.894Z,14.1
2018-05-10T20:36:20.973Z,14
2018-05-10T20:37:11.031Z,14
2018-05-10T20:38:00.813Z,14
2018-05-10T20:38:51.174Z,14
2018-05-10T20:39:41.207Z,13.9
2018-05-10T20:40:30.722Z,13.9
2018-05-10T20:41:21.379Z,13.9
2018-05-10T20:42:11.534Z,13.9
2018-05-10T20:43:01.544Z,13.9
2018-05-10T20:43:51.246Z,13.9
2018-05-10T20:44:41.737Z,13.9
2018-05-10T20:45:31.388Z,13.8
2018-05-10T20:46:21.717Z,13.8
2018-05-10T20:47:11.782Z,13.8
2018-05-10T20:48:01.571Z,13.8
2018-05-10T20:48:51.951Z,13.8
2018-05-10T20:49:41.987Z,13.8
2018-05-10T20:50:32.149Z,13.8
2018-05-10T20:51:21.539Z,13.8
2018-05-10T20:52:12.173Z,13.8
2018-05-10T20:53:02.218Z,13.7
2018-05-10T20:53:52.302Z,13.7
2018-05-10T20:54:42.354Z,13.7
2018-05-10T20:55:32.434Z,13.7
2018-05-10T20:56:22.475Z,13.7
2018-05-10T20:57:11.985Z,13.7
2018-05-10T20:58:02.336Z,13.6
2018-05-10T20:58:52.702Z,13.6
2018-05-10T20:59:42.466Z,13.6
2018-05-10T21:00:32.805Z,13.6
2018-05-10T21:01:22.596Z,13.6
2018-05-10T21:02:12.522Z,13.6
2018-05-10T21:03:03.007Z,13.6
2018-05-10T21:03:52.565Z,13.6
2018-05-10T21:04:42.840Z,13.6
2018-05-10T21:05:33.188Z,13.6
2018-05-10T21:06:23.263Z,13.6
2018-05-10T21:07:13.012Z,13.6
2018-05-10T21:08:03.389Z,13.5
2018-05-10T21:08:53.456Z,13.5
2018-05-10T21:09:43.487Z,13.5
2018-05-10T21:10:33.562Z,13.5
2018-05-10T21:11:23.335Z,13.5
2018-05-10T21:12:13.687Z,13.5
2018-05-10T21:13:03.761Z,13.4
2018-05-10T21:13:53.799Z,13.4
2018-05-10T21:14:43.605Z,13.4
2018-05-10T21:15:33.956Z,13.4
2018-05-10T21:16:23.730Z,13.4
2018-05-10T21:17:14.077Z,13.4
2018-05-10T21:18:04.136Z,13.4
2018-05-10T21:18:54.218Z,13.4
2018-05-10T21:19:43.982Z,13.4
2018-05-10T21:20:34.333Z,13.4
2018-05-10T21:21:24.484Z,13.4
2018-05-10T21:22:14.164Z,13.4
2018-05-10T21:23:04.649Z,13.4
2018-05-10T21:23:54.299Z,13.4
2018-05-10T21:24:44.624Z,13.3
2018-05-10T21:25:34.428Z,13.3
2018-05-10T21:26:24.775Z,13.3
2018-05-10T21:27:14.828Z,13.3
2018-05-10T21:28:04.881Z,13.3
2018-05-10T21:28:54.680Z,13.3
2018-05-10T21:29:45.031Z,13.3
2018-05-10T21:30:34.797Z,13.3
2018-05-10T21:31:24.864Z,13.3
2018-05-10T21:32:15.209Z,13.3
2018-05-10T21:33:05.283Z,13.3
2018-05-10T21:33:55.426Z,13.3
2018-05-10T21:34:45.401Z,13.3
2018-05-10T21:35:35.456Z,13.3
2018-05-10T21:36:25.528Z,13.3
2018-05-10T21:37:15.589Z,13.3
2018-05-10T21:38:05.647Z,13.2
2018-05-10T21:38:55.710Z,13.3
2018-05-10T21:39:45.765Z,13.2
2018-05-10T21:40:35.842Z,13.2
2018-05-10T21:41:25.612Z,13.2
2018-05-10T21:42:15.969Z,13.2
2018-05-10T21:43:06.038Z,13.2
2018-05-10T21:43:56.083Z,13.2
2018-05-10T21:44:46.375Z,13.2
2018-05-10T21:45:36.228Z,13.2
2018-05-10T21:46:26.283Z,13.1
2018-05-10T21:47:16.353Z,13.1
2018-05-10T21:48:06.406Z,13.1
2018-05-10T21:48:56.195Z,13.1
2018-05-10T21:49:46.531Z,13.1
2018-05-10T21:50:36.307Z,13.1
2018-05-10T21:51:26.387Z,13.1
2018-05-10T21:52:16.735Z,13.1
2018-05-10T21:53:06.786Z,13.1
2018-05-10T21:53:56.595Z,13.1
2018-05-10T21:54:46.947Z,13.1
2018-05-10T21:55:36.696Z,13.1
2018-05-10T21:56:27.036Z,13.1
2018-05-10T21:57:16.835Z,13.1
2018-05-10T21:58:07.169Z,13.1
2018-05-10T21:58:57.252Z,13.1
2018-05-10T21:59:47.306Z,13.1
2018-05-10T22:00:37.376Z,13.1
2018-05-10T22:01:27.414Z,13.1
2018-05-10T22:02:17.476Z,13.1
2018-05-10T22:03:07.540Z,13.1
2018-05-10T22:03:57.627Z,13.1
2018-05-10T22:04:47.702Z,13.1
2018-05-10T22:05:37.731Z,13.1
2018-05-10T22:06:27.804Z,13.1
2018-05-10T22:07:17.585Z,13.1
2018-05-10T22:08:07.925Z,13.1
2018-05-10T22:08:58.024Z,13.1
2018-05-10T22:09:48.128Z,13.1
2018-05-10T22:10:38.116Z,13.1
2018-05-10T22:11:28.182Z,13.1
2018-05-10T22:12:18.329Z,13.1
2018-05-10T22:13:08.310Z,13.1
2018-05-10T22:13:58.373Z,13
2018-05-10T22:14:48.170Z,13.1
2018-05-10T22:15:38.512Z,13.1
2018-05-10T22:16:28.305Z,13.1
2018-05-10T22:17:18.651Z,13.1
2018-05-10T22:18:08.422Z,13
2018-05-10T22:18:58.767Z,13.1
2018-05-10T22:19:48.544Z,13
2018-05-10T22:20:38.962Z,13
2018-05-10T22:21:28.950Z,13
2018-05-10T22:22:18.998Z,13
2018-05-10T22:23:09.069Z,13.1
2018-05-10T22:23:59.136Z,13
2018-05-10T22:24:49.193Z,13
2018-05-10T22:25:39.250Z,13
2018-05-10T22:26:29.333Z,13.1
2018-05-10T22:27:19.098Z,13.1
2018-05-10T22:28:09.436Z,13
2018-05-10T22:28:59.506Z,13.1
2018-05-10T22:29:49.574Z,13.1
2018-05-10T22:30:39.642Z,13.1
2018-05-10T22:31:29.696Z,13.1
2018-05-10T22:32:19.769Z,13
2018-05-10T22:33:09.831Z,13.1
2018-05-10T22:33:59.604Z,13.1
2018-05-10T22:34:49.946Z,13.1
2018-05-10T22:35:40.019Z,13.1
2018-05-10T22:36:29.795Z,13.1
2018-05-10T22:37:20.139Z,13
2018-05-10T22:38:10.215Z,13.1
2018-05-10T22:39:00.282Z,13.1
2018-05-10T22:39:50.349Z,13.1
2018-05-10T22:40:40.121Z,13.1
2018-05-10T22:41:30.472Z,13.1
2018-05-10T22:42:20.523Z,13.1
2018-05-10T22:43:10.314Z,13.1
2018-05-10T22:44:00.657Z,13.1
2018-05-10T22:44:50.719Z,13.1
2018-05-10T22:45:40.774Z,13.1
2018-05-10T22:46:30.850Z,13.1
2018-05-10T22:47:20.621Z,13.1
2018-05-10T22:48:10.987Z,13
2018-05-10T22:49:01.052Z,13.1
2018-05-10T22:49:51.092Z,13
2018-05-10T22:50:41.184Z,13
2018-05-10T22:51:31.222Z,13
2018-05-10T22:52:21.012Z,13
2018-05-10T22:53:11.353Z,13
2018-05-10T22:54:01.139Z,13
2018-05-10T22:54:51.474Z,13
2018-05-10T22:55:41.557Z,13
2018-05-10T22:56:31.326Z,12.9
2018-05-10T22:57:21.674Z,12.9
2018-05-10T22:58:11.729Z,13
2018-05-10T22:59:01.799Z,12.9
2018-05-10T22:59:52.130Z,12.9
2018-05-10T23:00:41.931Z,12.9
2018-05-10T23:01:31.816Z,12.9
2018-05-10T23:02:22.062Z,12.9
2018-05-10T23:03:12.103Z,12.9
2018-05-10T23:04:02.179Z,12.9
2018-05-10T23:04:52.250Z,12.9
2018-05-10T23:05:42.293Z,12.9
2018-05-10T23:06:32.365Z,12.9
2018-05-10T23:07:22.423Z,12.9
2018-05-10T23:08:12.486Z,12.9
2018-05-10T23:09:02.550Z,12.9
2018-05-10T23:09:52.624Z,12.9
2018-05-10T23:10:42.399Z,12.9
2018-05-10T23:11:32.464Z,12.9
2018-05-10T23:12:22.802Z,12.9
2018-05-10T23:13:12.597Z,12.9
2018-05-10T23:14:02.930Z,12.9
2018-05-10T23:14:52.719Z,12.9
2018-05-10T23:15:42.775Z,12.9
2018-05-10T23:16:33.118Z,12.9
2018-05-10T23:17:23.185Z,12.9
2018-05-10T23:18:13.244Z,12.9
2018-05-10T23:19:03.024Z,12.9
2018-05-10T23:19:53.363Z,12.9
2018-05-10T23:20:43.427Z,12.9
2018-05-10T23:21:33.218Z,12.9
2018-05-10T23:22:23.280Z,12.9
2018-05-10T23:23:13.634Z,12.9
2018-05-10T23:24:03.695Z,12.9
2018-05-10T23:24:53.749Z,12.9
2018-05-10T23:25:43.827Z,12.9
2018-05-10T23:26:33.876Z,12.9
2018-05-10T23:27:23.947Z,12.9
2018-05-10T23:28:14.033Z,12.9
2018-05-10T23:29:03.804Z,12.9
2018-05-10T23:29:53.838Z,12.9
2018-05-10T23:30:44.194Z,12.9
2018-05-10T23:31:33.991Z,12.9
2018-05-10T23:32:24.317Z,12.9
2018-05-10T23:33:14.398Z,12.9
2018-05-10T23:34:04.447Z,12.9
2018-05-10T23:34:54.223Z,12.9
2018-05-10T23:35:44.578Z,12.9
2018-05-10T23:36:34.637Z,12.9
2018-05-10T23:37:24.416Z,12.9
2018-05-10T23:38:14.488Z,12.9
2018-05-10T23:39:04.829Z,12.9
2018-05-10T23:39:54.895Z,12.9
2018-05-10T23:40:44.949Z,12.9
2018-05-10T23:41:35.026Z,12.9
2018-05-10T23:42:25.089Z,12.9
2018-05-10T23:43:15.142Z,12.9
2018-05-10T23:44:05.208Z,12.9
2018-05-10T23:44:55.266Z,12.9
2018-05-10T23:45:45.340Z,12.9
2018-05-10T23:46:35.403Z,12.9
2018-05-10T23:47:25.183Z,12.9
2018-05-10T23:48:15.528Z,12.9
2018-05-10T23:49:05.593Z,12.9
2018-05-10T23:49:55.650Z,12.9
2018-05-10T23:50:45.717Z,12.9
2018-05-10T23:51:35.772Z,12.9
2018-05-10T23:52:25.834Z,12.9
2018-05-10T23:53:15.897Z,12.9
2018-05-10T23:54:05.695Z,12.9
2018-05-10T23:54:56.042Z,12.9
2018-05-10T23:55:46.094Z,12.9
2018-05-10T23:56:36.153Z,12.9
2018-05-10T23:57:26.223Z,12.9
2018-05-10T23:58:15.720Z,12.9
2018-05-10T23:59:06.341Z,12.9
2018-05-10T23:59:56.403Z,12.9
